createdAt,value
2019-02-28T00:03:26.130Z,13.00
2019-02-28T00:07:30.247Z,12.90
2019-02-28T00:11:36.123Z,12.80
2019-02-28T00:15:43.374Z,12.80
2019-02-28T00:19:49.072Z,12.80
2019-02-28T00:23:57.285Z,12.80
2019-02-28T00:28:02.158Z,12.80
2019-02-28T00:32:08.908Z,12.60
2019-02-28T00:36:16.348Z,12.60
2019-02-28T00:40:22.021Z,12.50
2019-02-28T00:44:30.416Z,12.10
2019-02-28T00:48:35.093Z,12.00
2019-02-28T00:52:40.790Z,12.10
2019-02-28T00:56:51.433Z,12.10
2019-02-28T01:00:53.884Z,12.10
2019-02-28T01:05:04.315Z,11.90
2019-02-28T01:09:08.584Z,11.80
2019-02-28T01:13:14.447Z,11.80
2019-02-28T01:17:20.146Z,11.90
2019-02-28T01:21:25.844Z,11.80
2019-02-28T01:25:31.536Z,11.70
2019-02-28T01:29:37.218Z,11.50
2019-02-28T01:33:42.928Z,11.60
2019-02-28T01:37:48.684Z,11.60
2019-02-28T01:41:54.448Z,11.70
2019-02-28T01:46:00.133Z,11.90
2019-02-28T01:50:09.037Z,11.80
2019-02-28T01:54:14.720Z,12.00
2019-02-28T01:58:20.423Z,11.90
2019-02-28T02:02:26.114Z,11.70
2019-02-28T02:06:31.959Z,11.60
2019-02-28T02:10:37.672Z,11.70
2019-02-28T02:14:45.620Z,11.70
2019-02-28T02:18:50.756Z,11.70
2019-02-28T02:22:56.598Z,11.70
2019-02-28T02:27:02.343Z,11.60
2019-02-28T02:31:08.129Z,11.60
2019-02-28T02:35:14.046Z,11.70
2019-02-28T02:39:19.741Z,11.70
2019-02-28T02:43:25.442Z,11.70
2019-02-28T02:47:32.428Z,11.40
2019-02-28T02:51:38.294Z,11.30
2019-02-28T02:55:43.989Z,11.10
2019-02-28T02:59:49.689Z,11.10
2019-02-28T03:03:55.385Z,11.00
2019-02-28T03:08:01.200Z,11.00
2019-02-28T03:12:07.045Z,11.30
2019-02-28T03:16:12.729Z,11.20
2019-02-28T03:20:19.589Z,11.10
2019-02-28T03:24:25.267Z,11.30
2019-02-28T03:28:32.178Z,11.50
2019-02-28T03:32:41.893Z,11.50
2019-02-28T03:36:55.352Z,11.60
2019-02-28T03:40:53.466Z,11.70
2019-02-28T03:45:00.476Z,11.70
2019-02-28T03:49:11.039Z,11.60
2019-02-28T03:53:19.487Z,11.50
2019-02-28T03:57:27.954Z,11.60
2019-02-28T04:01:28.517Z,11.60
2019-02-28T04:05:34.255Z,11.60
2019-02-28T04:09:43.703Z,11.70
2019-02-28T04:13:47.339Z,11.70
2019-02-28T04:17:53.030Z,11.70
2019-02-28T04:21:58.808Z,11.60
2019-02-28T04:26:04.484Z,11.70
2019-02-28T04:30:15.433Z,11.80
2019-02-28T04:34:21.136Z,11.70
2019-02-28T04:38:27.095Z,11.70
2019-02-28T04:42:32.799Z,11.60
2019-02-28T04:46:38.503Z,11.50
2019-02-28T04:50:44.192Z,11.60
2019-02-28T04:54:49.881Z,11.70
2019-02-28T04:58:56.529Z,11.70
2019-02-28T05:03:02.970Z,11.30
2019-02-28T05:07:08.651Z,11.30
2019-02-28T05:11:14.378Z,11.40
2019-02-28T05:15:20.114Z,11.40
2019-02-28T05:19:25.823Z,11.40
2019-02-28T05:23:35.834Z,11.30
2019-02-28T05:27:38.970Z,11.30
2019-02-28T05:31:44.669Z,11.30
2019-02-28T05:35:50.725Z,11.30
2019-02-28T05:39:56.424Z,11.30
2019-02-28T05:44:03.282Z,11.30
2019-02-28T05:48:09.506Z,10.90
2019-02-28T05:52:15.202Z,10.70
2019-02-28T05:56:20.886Z,10.50
2019-02-28T06:00:26.584Z,10.50
2019-02-28T06:04:34.203Z,10.60
2019-02-28T06:08:40.045Z,10.70
2019-02-28T06:12:45.720Z,10.80
2019-02-28T06:16:51.429Z,10.90
2019-02-28T06:20:57.181Z,11.10
2019-02-28T06:25:02.924Z,10.90
2019-02-28T06:29:08.618Z,10.60
2019-02-28T06:33:14.308Z,10.50
2019-02-28T06:37:20.007Z,10.50
2019-02-28T06:41:25.707Z,10.60
2019-02-28T06:45:36.688Z,10.80
2019-02-28T06:49:41.923Z,10.80
2019-02-28T06:53:46.245Z,11.00
2019-02-28T06:57:51.942Z,11.20
2019-02-28T07:01:57.821Z,11.00
2019-02-28T07:06:03.557Z,11.10
2019-02-28T07:10:17.381Z,11.20
2019-02-28T07:14:23.231Z,11.50
2019-02-28T07:18:28.999Z,11.70
2019-02-28T07:22:34.674Z,12.00
2019-02-28T07:26:40.408Z,13.00
2019-02-28T07:30:46.116Z,13.90
2019-02-28T07:34:54.837Z,14.50
2019-02-28T07:39:01.316Z,14.60
2019-02-28T07:43:12.126Z,14.40
2019-02-28T07:47:17.673Z,14.10
2019-02-28T07:51:26.111Z,13.70
2019-02-28T07:55:31.087Z,13.60
2019-02-28T07:59:40.955Z,13.60
2019-02-28T08:03:44.919Z,13.60
2019-02-28T08:07:52.485Z,13.70
2019-02-28T08:11:58.467Z,13.90
2019-02-28T08:16:04.319Z,13.90
2019-02-28T08:20:10.406Z,14.00
2019-02-28T08:24:17.724Z,14.30
2019-02-28T08:28:24.712Z,14.80
2019-02-28T08:32:33.808Z,15.20
2019-02-28T08:36:39.669Z,15.40
2019-02-28T08:40:50.310Z,16.10
2019-02-28T08:44:58.134Z,16.90
2019-02-28T08:49:06.110Z,16.60
2019-02-28T08:53:07.827Z,16.70
2019-02-28T08:57:13.853Z,16.90
2019-02-28T09:01:19.702Z,17.30
2019-02-28T09:05:27.801Z,18.10
2019-02-28T09:09:34.432Z,21.00
2019-02-28T09:13:43.031Z,21.60
2019-02-28T09:17:48.654Z,21.30
2019-02-28T09:21:54.345Z,21.50
2019-02-28T09:26:00.272Z,22.30
2019-02-28T09:30:17.663Z,21.80
2019-02-28T09:34:23.362Z,21.00
2019-02-28T09:38:29.083Z,22.10
2019-02-28T09:42:34.778Z,23.30
2019-02-28T09:46:40.464Z,22.00
2019-02-28T09:50:46.238Z,21.50
2019-02-28T09:54:51.926Z,20.90
2019-02-28T09:59:00.227Z,21.70
2019-02-28T10:03:06.774Z,21.80
2019-02-28T10:07:12.609Z,22.30
2019-02-28T10:11:21.743Z,22.00
2019-02-28T10:15:27.830Z,20.80
2019-02-28T10:19:43.035Z,20.90
2019-02-28T10:23:42.806Z,21.90
2019-02-28T10:27:48.419Z,22.70
2019-02-28T10:31:54.146Z,24.70
2019-02-28T10:36:01.398Z,24.30
2019-02-28T10:40:29.047Z,23.50
2019-02-28T10:44:34.713Z,23.00
2019-02-28T10:48:50.768Z,22.70
2019-02-28T10:52:49.544Z,22.00
2019-02-28T10:56:55.378Z,21.60
2019-02-28T11:06:01.858Z,22.50
2019-02-28T11:10:10.402Z,23.00
2019-02-28T11:14:17.510Z,23.60
2019-02-28T11:18:23.249Z,24.00
2019-02-28T11:22:29.284Z,25.20
2019-02-28T11:26:35.357Z,27.90
2019-02-28T11:30:44.786Z,31.90
2019-02-28T11:34:50.780Z,34.70
2019-02-28T11:38:56.517Z,36.30
2019-02-28T11:43:04.217Z,37.20
2019-02-28T11:47:11.158Z,35.80
2019-02-28T11:51:18.487Z,34.70
2019-02-28T11:55:24.257Z,32.60
2019-02-28T11:59:29.956Z,31.10
2019-02-28T12:03:36.606Z,30.70
2019-02-28T12:07:42.349Z,30.80
2019-02-28T12:11:48.063Z,29.50
2019-02-28T12:15:53.914Z,26.80
2019-02-28T12:19:59.642Z,25.50
2019-02-28T12:24:05.426Z,26.10
2019-02-28T12:28:11.102Z,27.30
2019-02-28T12:32:16.870Z,30.30
2019-02-28T12:36:22.633Z,28.60
2019-02-28T12:40:45.675Z,26.80
2019-02-28T12:44:52.236Z,27.70
2019-02-28T12:48:58.154Z,28.40
2019-02-28T12:53:04.209Z,28.70
2019-02-28T12:57:10.057Z,27.00
2019-02-28T13:01:15.754Z,28.60
2019-02-28T13:05:21.484Z,27.60
2019-02-28T13:09:27.188Z,29.30
2019-02-28T13:13:33.327Z,26.90
2019-02-28T13:17:39.281Z,27.20
2019-02-28T13:21:46.791Z,26.20
2019-02-28T13:25:59.111Z,26.30
2019-02-28T13:29:59.870Z,26.10
2019-02-28T13:34:05.685Z,24.40
2019-02-28T13:38:17.427Z,23.30
2019-02-28T13:42:18.861Z,22.30
2019-02-28T13:46:32.472Z,21.90
2019-02-28T13:50:34.906Z,22.60
2019-02-28T13:54:43.125Z,24.80
2019-02-28T13:58:49.090Z,28.30
2019-02-28T14:03:01.415Z,30.10
2019-02-28T14:07:07.703Z,30.10
2019-02-28T14:11:15.053Z,31.80
2019-02-28T14:15:48.161Z,31.60
2019-02-28T14:19:53.589Z,28.80
2019-02-28T14:23:59.342Z,26.70
2019-02-28T14:28:05.312Z,24.50
2019-02-28T14:32:11.085Z,23.80
2019-02-28T14:36:16.906Z,22.60
2019-02-28T14:40:22.729Z,21.50
2019-02-28T14:44:31.557Z,21.60
2019-02-28T14:48:36.550Z,21.10
2019-02-28T14:52:43.351Z,20.70
2019-02-28T14:56:49.063Z,20.70
2019-02-28T15:00:54.757Z,20.60
2019-02-28T15:05:00.458Z,20.70
2019-02-28T15:09:15.643Z,20.30
2019-02-28T15:13:21.521Z,20.40
2019-02-28T15:17:27.216Z,20.40
2019-02-28T15:21:32.914Z,20.20
2019-02-28T15:25:38.618Z,20.10
2019-02-28T15:29:44.305Z,20.30
2019-02-28T15:33:50.019Z,20.20
2019-02-28T15:37:57.114Z,19.70
2019-02-28T15:42:05.543Z,19.50
2019-02-28T15:46:11.864Z,19.50
2019-02-28T15:50:18.442Z,19.60
2019-02-28T15:54:25.359Z,19.60
2019-02-28T15:58:31.602Z,19.40
2019-02-28T16:02:38.637Z,19.40
2019-02-28T16:06:44.708Z,19.10
2019-02-28T16:10:53.626Z,19.20
2019-02-28T16:14:57.813Z,19.20
2019-02-28T16:19:03.662Z,19.00
2019-02-28T16:23:09.392Z,18.90
2019-02-28T16:27:15.108Z,18.70
2019-02-28T16:31:21.851Z,18.60
2019-02-28T16:35:29.032Z,18.40
2019-02-28T16:39:36.593Z,18.40
2019-02-28T16:43:42.286Z,18.10
2019-02-28T16:47:47.995Z,18.10
2019-02-28T16:51:57.130Z,18.20
2019-02-28T16:56:05.725Z,18.10
2019-02-28T17:00:14.493Z,18.20
2019-02-28T17:04:20.252Z,18.00
2019-02-28T17:08:27.579Z,17.70
2019-02-28T17:12:34.923Z,18.00
2019-02-28T17:16:53.849Z,17.50
2019-02-28T17:20:59.553Z,17.60
2019-02-28T17:25:07.140Z,17.30
2019-02-28T17:29:21.548Z,17.40
2019-02-28T17:33:27.908Z,17.10
2019-02-28T17:38:18.612Z,17.00
2019-02-28T17:42:24.384Z,16.90
2019-02-28T17:47:25.688Z,16.90
2019-02-28T17:51:39.256Z,16.90
2019-02-28T17:56:23.144Z,16.50
2019-02-28T18:00:33.485Z,16.30
2019-02-28T18:05:17.953Z,16.30
2019-02-28T18:10:17.225Z,16.30
2019-02-28T18:14:34.260Z,16.30
2019-02-28T18:19:18.077Z,16.40
2019-02-28T18:25:51.928Z,16.20
2019-02-28T18:28:36.871Z,16.30
2019-02-28T18:37:12.357Z,16.30
2019-02-28T18:41:18.087Z,16.30
2019-02-28T18:45:24.791Z,16.00
2019-02-28T18:49:30.548Z,16.00
2019-02-28T18:53:36.290Z,15.90
2019-02-28T18:57:41.985Z,15.80
2019-02-28T19:01:47.695Z,15.80
2019-02-28T19:05:54.210Z,15.80
2019-02-28T19:09:59.975Z,15.80
2019-02-28T19:14:05.730Z,15.60
2019-02-28T19:18:11.482Z,15.50
2019-02-28T19:22:17.187Z,15.30
2019-02-28T19:26:22.894Z,15.50
2019-02-28T19:30:28.600Z,15.30
2019-02-28T19:34:34.348Z,15.40
2019-02-28T19:38:40.070Z,15.40
2019-02-28T19:42:47.321Z,15.60
2019-02-28T19:51:51.557Z,15.50
2019-02-28T19:55:57.320Z,15.00
2019-02-28T20:00:20.563Z,14.80
2019-02-28T20:04:26.261Z,14.80
2019-02-28T20:09:16.915Z,15.00
2019-02-28T20:13:22.618Z,15.00
2019-02-28T20:17:28.438Z,14.80
2019-02-28T20:21:34.125Z,14.80
2019-02-28T20:25:39.829Z,14.90
2019-02-28T20:29:54.702Z,14.80
2019-02-28T20:33:53.047Z,14.70
2019-02-28T20:37:58.811Z,14.80
2019-02-28T20:42:16.739Z,14.80
2019-02-28T20:46:22.473Z,14.90
2019-02-28T20:50:46.823Z,14.60
2019-02-28T20:55:19.392Z,14.40
2019-02-28T20:59:25.089Z,14.30
2019-02-28T21:03:30.771Z,14.30
2019-02-28T21:07:36.610Z,14.30
2019-02-28T21:11:42.370Z,14.40
2019-02-28T21:15:48.090Z,14.30
2019-02-28T21:20:17.882Z,14.20
2019-02-28T21:24:23.648Z,14.30
2019-02-28T21:28:29.366Z,14.30
2019-02-28T21:32:35.056Z,14.30
2019-02-28T21:36:40.900Z,14.20
2019-02-28T21:40:47.123Z,14.20
2019-02-28T21:45:25.329Z,14.20
2019-02-28T21:49:31.196Z,14.40
2019-02-28T21:53:36.978Z,14.40
2019-02-28T21:57:42.834Z,14.30
2019-02-28T22:01:48.558Z,14.40
2019-02-28T22:05:54.281Z,14.40
2019-02-28T22:10:18.597Z,14.10
2019-02-28T22:14:24.354Z,14.10
2019-02-28T22:18:30.103Z,13.90
2019-02-28T22:22:35.797Z,13.80
2019-02-28T22:26:41.487Z,13.80
2019-02-28T22:30:46.944Z,13.80
2019-02-28T22:34:54.279Z,13.90
2019-02-28T22:38:59.978Z,14.10
2019-02-28T22:43:05.814Z,13.40
2019-02-28T22:47:11.489Z,13.70
2019-02-28T22:51:17.266Z,13.60
2019-02-28T22:55:23.256Z,13.50
2019-02-28T22:59:28.957Z,13.20
2019-02-28T23:03:36.747Z,13.10
2019-02-28T23:07:42.449Z,13.00
2019-02-28T23:11:48.131Z,12.70
2019-02-28T23:15:54.125Z,12.70
2019-02-28T23:19:59.865Z,12.90
2019-02-28T23:24:05.680Z,13.00
2019-02-28T23:28:15.706Z,13.00
2019-02-28T23:32:43.965Z,12.90
2019-02-28T23:36:49.671Z,13.00
2019-02-28T23:40:57.455Z,12.80
2019-02-28T23:45:03.132Z,12.80
2019-02-28T23:49:09.889Z,12.60
2019-02-28T23:53:15.593Z,12.90
2019-02-28T23:57:21.445Z,13.00
